sensor_id;sensor_type;location;lat;lon;timestamp;P1;durP1;ratioP1;P2;durP2;ratioP2
75535;SDS011;64119;52.070;20.804;2023-04-25T00:01:59;9.50;;;6.70;;
75535;SDS011;64119;52.070;20.804;2023-04-25T00:04:27;11.50;;;7.80;;
75535;SDS011;64119;52.070;20.804;2023-04-25T00:06:55;9.20;;;6.40;;
75535;SDS011;64119;52.070;20.804;2023-04-25T00:09:23;10.60;;;7.20;;
75535;SDS011;64119;52.070;20.804;2023-04-25T00:11:51;10.50;;;7.40;;
75535;SDS011;64119;52.070;20.804;2023-04-25T00:14:19;9.80;;;7.30;;
75535;SDS011;64119;52.070;20.804;2023-04-25T00:16:47;12.00;;;8.90;;
75535;SDS011;64119;52.070;20.804;2023-04-25T00:19:16;10.70;;;7.90;;
75535;SDS011;64119;52.070;20.804;2023-04-25T00:21:44;12.00;;;7.30;;
75535;SDS011;64119;52.070;20.804;2023-04-25T00:24:13;11.60;;;8.30;;
75535;SDS011;64119;52.070;20.804;2023-04-25T00:26:41;9.40;;;7.80;;
75535;SDS011;64119;52.070;20.804;2023-04-25T00:29:09;10.20;;;7.30;;
75535;SDS011;64119;52.070;20.804;2023-04-25T00:31:38;11.70;;;8.30;;
75535;SDS011;64119;52.070;20.804;2023-04-25T00:37:26;13.00;;;8.20;;
75535;SDS011;64119;52.070;20.804;2023-04-25T00:39:54;11.20;;;7.70;;
75535;SDS011;64119;52.070;20.804;2023-04-25T00:42:23;12.00;;;7.50;;
75535;SDS011;64119;52.070;20.804;2023-04-25T00:44:52;10.90;;;7.40;;
75535;SDS011;64119;52.070;20.804;2023-04-25T00:47:20;11.00;;;7.40;;
75535;SDS011;64119;52.070;20.804;2023-04-25T00:49:49;10.40;;;7.00;;
75535;SDS011;64119;52.070;20.804;2023-04-25T00:52:16;10.30;;;7.30;;
75535;SDS011;64119;52.070;20.804;2023-04-25T00:54:44;10.40;;;7.40;;
75535;SDS011;64119;52.070;20.804;2023-04-25T00:57:12;10.00;;;6.70;;
75535;SDS011;64119;52.070;20.804;2023-04-25T00:59:41;9.70;;;6.50;;
75535;SDS011;64119;52.070;20.804;2023-04-25T01:02:14;9.00;;;6.30;;
75535;SDS011;64119;52.070;20.804;2023-04-25T01:04:42;8.20;;;6.10;;
75535;SDS011;64119;52.070;20.804;2023-04-25T01:07:10;8.20;;;6.10;;
75535;SDS011;64119;52.070;20.804;2023-04-25T01:09:38;9.70;;;6.30;;
75535;SDS011;64119;52.070;20.804;2023-04-25T01:12:07;8.20;;;6.30;;
75535;SDS011;64119;52.070;20.804;2023-04-25T01:14:35;8.90;;;6.10;;
75535;SDS011;64119;52.070;20.804;2023-04-25T01:17:05;7.90;;;5.70;;
75535;SDS011;64119;52.070;20.804;2023-04-25T01:19:35;9.50;;;5.90;;
75535;SDS011;64119;52.070;20.804;2023-04-25T01:22:03;8.40;;;6.20;;
75535;SDS011;64119;52.070;20.804;2023-04-25T01:24:32;9.30;;;5.90;;
75535;SDS011;64119;52.070;20.804;2023-04-25T01:27:00;8.80;;;5.70;;
75535;SDS011;64119;52.070;20.804;2023-04-25T01:29:30;9.30;;;5.90;;
75535;SDS011;64119;52.070;20.804;2023-04-25T01:31:58;8.10;;;5.50;;
75535;SDS011;64119;52.070;20.804;2023-04-25T01:37:57;8.70;;;5.60;;
75535;SDS011;64119;52.070;20.804;2023-04-25T01:40:24;6.80;;;4.50;;
75535;SDS011;64119;52.070;20.804;2023-04-25T01:42:50;7.90;;;5.20;;
75535;SDS011;64119;52.070;20.804;2023-04-25T01:45:19;6.10;;;4.20;;
75535;SDS011;64119;52.070;20.804;2023-04-25T01:47:45;6.30;;;3.80;;
75535;SDS011;64119;52.070;20.804;2023-04-25T01:50:17;6.20;;;3.60;;
75535;SDS011;64119;52.070;20.804;2023-04-25T01:52:45;5.20;;;3.70;;
75535;SDS011;64119;52.070;20.804;2023-04-25T01:55:12;4.70;;;2.90;;
75535;SDS011;64119;52.070;20.804;2023-04-25T01:57:46;6.20;;;3.70;;
75535;SDS011;64119;52.070;20.804;2023-04-25T02:00:13;5.50;;;3.70;;
75535;SDS011;64119;52.070;20.804;2023-04-25T02:02:40;5.90;;;3.70;;
75535;SDS011;64119;52.070;20.804;2023-04-25T02:05:24;5.30;;;3.80;;
75535;SDS011;64119;52.070;20.804;2023-04-25T02:07:51;6.40;;;4.00;;
75535;SDS011;64119;52.070;20.804;2023-04-25T02:10:17;5.40;;;3.60;;
75535;SDS011;64119;52.070;20.804;2023-04-25T02:13:10;5.70;;;3.60;;
75535;SDS011;64119;52.070;20.804;2023-04-25T02:15:45;5.80;;;3.60;;
75535;SDS011;64119;52.070;20.804;2023-04-25T02:18:17;5.80;;;3.50;;
75535;SDS011;64119;52.070;20.804;2023-04-25T02:20:43;6.20;;;4.20;;
75535;SDS011;64119;52.070;20.804;2023-04-25T02:23:13;5.70;;;3.90;;
75535;SDS011;64119;52.070;20.804;2023-04-25T02:25:41;5.10;;;3.60;;
75535;SDS011;64119;52.070;20.804;2023-04-25T02:28:08;8.50;;;4.60;;
75535;SDS011;64119;52.070;20.804;2023-04-25T02:30:35;5.50;;;3.40;;
75535;SDS011;64119;52.070;20.804;2023-04-25T02:33:04;6.10;;;3.90;;
75535;SDS011;64119;52.070;20.804;2023-04-25T02:35:31;6.20;;;4.10;;
75535;SDS011;64119;52.070;20.804;2023-04-25T02:37:59;5.80;;;3.40;;
75535;SDS011;64119;52.070;20.804;2023-04-25T02:40:25;7.10;;;4.50;;
75535;SDS011;64119;52.070;20.804;2023-04-25T02:42:53;5.90;;;3.50;;
75535;SDS011;64119;52.070;20.804;2023-04-25T02:45:19;6.10;;;3.80;;
75535;SDS011;64119;52.070;20.804;2023-04-25T02:47:46;4.50;;;2.70;;
75535;SDS011;64119;52.070;20.804;2023-04-25T02:50:12;5.10;;;3.20;;
75535;SDS011;64119;52.070;20.804;2023-04-25T02:52:39;4.70;;;3.40;;
75535;SDS011;64119;52.070;20.804;2023-04-25T02:55:15;5.40;;;3.80;;
75535;SDS011;64119;52.070;20.804;2023-04-25T02:57:41;4.80;;;3.60;;
75535;SDS011;64119;52.070;20.804;2023-04-25T03:00:10;4.90;;;3.20;;
75535;SDS011;64119;52.070;20.804;2023-04-25T03:02:38;6.00;;;3.70;;
75535;SDS011;64119;52.070;20.804;2023-04-25T03:05:05;5.60;;;3.30;;
75535;SDS011;64119;52.070;20.804;2023-04-25T03:07:32;3.70;;;2.50;;
75535;SDS011;64119;52.070;20.804;2023-04-25T03:09:59;5.00;;;3.60;;
75535;SDS011;64119;52.070;20.804;2023-04-25T03:12:26;4.90;;;2.90;;
75535;SDS011;64119;52.070;20.804;2023-04-25T03:14:52;5.00;;;3.40;;
75535;SDS011;64119;52.070;20.804;2023-04-25T03:17:19;6.30;;;2.90;;
75535;SDS011;64119;52.070;20.804;2023-04-25T03:19:46;4.20;;;2.60;;
75535;SDS011;64119;52.070;20.804;2023-04-25T03:22:12;5.10;;;3.10;;
75535;SDS011;64119;52.070;20.804;2023-04-25T03:24:39;4.40;;;2.80;;
75535;SDS011;64119;52.070;20.804;2023-04-25T03:27:06;4.70;;;2.80;;
75535;SDS011;64119;52.070;20.804;2023-04-25T03:29:32;4.30;;;2.80;;
75535;SDS011;64119;52.070;20.804;2023-04-25T03:32:00;3.80;;;2.40;;
75535;SDS011;64119;52.070;20.804;2023-04-25T03:37:29;5.40;;;3.10;;
75535;SDS011;64119;52.070;20.804;2023-04-25T03:39:57;4.00;;;2.90;;
75535;SDS011;64119;52.070;20.804;2023-04-25T03:42:30;3.90;;;2.40;;
75535;SDS011;64119;52.070;20.804;2023-04-25T03:44:58;4.80;;;2.80;;
75535;SDS011;64119;52.070;20.804;2023-04-25T03:47:25;4.80;;;3.00;;
75535;SDS011;64119;52.070;20.804;2023-04-25T03:49:54;4.40;;;2.90;;
75535;SDS011;64119;52.070;20.804;2023-04-25T03:52:23;5.10;;;2.80;;
75535;SDS011;64119;52.070;20.804;2023-04-25T03:54:51;5.10;;;2.60;;
75535;SDS011;64119;52.070;20.804;2023-04-25T03:57:21;4.20;;;2.80;;
75535;SDS011;64119;52.070;20.804;2023-04-25T03:59:49;4.10;;;3.00;;
75535;SDS011;64119;52.070;20.804;2023-04-25T04:02:17;3.20;;;2.00;;
75535;SDS011;64119;52.070;20.804;2023-04-25T04:04:45;3.70;;;2.70;;
75535;SDS011;64119;52.070;20.804;2023-04-25T04:07:14;4.60;;;3.20;;
75535;SDS011;64119;52.070;20.804;2023-04-25T04:09:45;5.30;;;3.20;;
75535;SDS011;64119;52.070;20.804;2023-04-25T04:12:19;4.80;;;3.20;;
75535;SDS011;64119;52.070;20.804;2023-04-25T04:14:46;4.90;;;2.90;;
75535;SDS011;64119;52.070;20.804;2023-04-25T04:17:14;5.30;;;3.40;;
75535;SDS011;64119;52.070;20.804;2023-04-25T04:19:42;5.00;;;4.00;;
75535;SDS011;64119;52.070;20.804;2023-04-25T04:22:17;5.00;;;3.60;;
75535;SDS011;64119;52.070;20.804;2023-04-25T04:24:46;6.40;;;3.90;;
75535;SDS011;64119;52.070;20.804;2023-04-25T04:27:19;6.00;;;4.30;;
75535;SDS011;64119;52.070;20.804;2023-04-25T04:29:53;5.90;;;4.20;;
75535;SDS011;64119;52.070;20.804;2023-04-25T04:32:28;5.30;;;3.50;;
75535;SDS011;64119;52.070;20.804;2023-04-25T04:34:57;5.10;;;3.80;;
75535;SDS011;64119;52.070;20.804;2023-04-25T04:37:27;4.20;;;2.90;;
75535;SDS011;64119;52.070;20.804;2023-04-25T04:39:57;3.60;;;2.80;;
75535;SDS011;64119;52.070;20.804;2023-04-25T04:42:37;4.90;;;3.60;;
75535;SDS011;64119;52.070;20.804;2023-04-25T04:45:25;5.90;;;3.50;;
75535;SDS011;64119;52.070;20.804;2023-04-25T04:48:27;7.20;;;3.80;;
75535;SDS011;64119;52.070;20.804;2023-04-25T04:51:01;6.00;;;4.40;;
75535;SDS011;64119;52.070;20.804;2023-04-25T04:53:48;5.80;;;4.60;;
75535;SDS011;64119;52.070;20.804;2023-04-25T04:56:55;5.20;;;3.80;;
75535;SDS011;64119;52.070;20.804;2023-04-25T04:59:35;5.10;;;3.00;;
75535;SDS011;64119;52.070;20.804;2023-04-25T05:02:27;7.00;;;4.40;;
75535;SDS011;64119;52.070;20.804;2023-04-25T05:05:19;6.80;;;4.60;;
75535;SDS011;64119;52.070;20.804;2023-04-25T05:08:10;7.00;;;5.00;;
75535;SDS011;64119;52.070;20.804;2023-04-25T05:10:56;7.40;;;3.70;;
75535;SDS011;64119;52.070;20.804;2023-04-25T05:13:37;6.00;;;3.80;;
75535;SDS011;64119;52.070;20.804;2023-04-25T05:16:24;5.50;;;4.20;;
75535;SDS011;64119;52.070;20.804;2023-04-25T05:18:57;4.40;;;3.40;;
75535;SDS011;64119;52.070;20.804;2023-04-25T05:21:51;6.40;;;4.60;;
75535;SDS011;64119;52.070;20.804;2023-04-25T05:24:46;5.40;;;4.00;;
75535;SDS011;64119;52.070;20.804;2023-04-25T05:27:32;7.30;;;4.70;;
75535;SDS011;64119;52.070;20.804;2023-04-25T05:30:00;7.40;;;3.90;;
75535;SDS011;64119;52.070;20.804;2023-04-25T05:32:48;5.90;;;4.50;;
75535;SDS011;64119;52.070;20.804;2023-04-25T05:35:16;5.80;;;4.10;;
75535;SDS011;64119;52.070;20.804;2023-04-25T05:37:47;6.10;;;4.60;;
75535;SDS011;64119;52.070;20.804;2023-04-25T05:40:15;5.90;;;4.20;;
75535;SDS011;64119;52.070;20.804;2023-04-25T05:43:02;5.80;;;4.60;;
75535;SDS011;64119;52.070;20.804;2023-04-25T05:45:43;4.90;;;3.10;;
75535;SDS011;64119;52.070;20.804;2023-04-25T05:48:30;5.60;;;4.40;;
75535;SDS011;64119;52.070;20.804;2023-04-25T05:51:04;6.00;;;4.50;;
75535;SDS011;64119;52.070;20.804;2023-04-25T05:54:08;7.80;;;4.50;;
75535;SDS011;64119;52.070;20.804;2023-04-25T05:56:35;7.50;;;4.90;;
75535;SDS011;64119;52.070;20.804;2023-04-25T05:59:03;8.00;;;5.00;;
75535;SDS011;64119;52.070;20.804;2023-04-25T06:01:34;5.20;;;3.50;;
75535;SDS011;64119;52.070;20.804;2023-04-25T06:04:02;6.70;;;4.70;;
75535;SDS011;64119;52.070;20.804;2023-04-25T06:06:32;6.00;;;4.50;;
75535;SDS011;64119;52.070;20.804;2023-04-25T06:09:00;6.60;;;4.80;;
75535;SDS011;64119;52.070;20.804;2023-04-25T06:11:31;5.50;;;3.50;;
75535;SDS011;64119;52.070;20.804;2023-04-25T06:14:00;6.50;;;4.60;;
75535;SDS011;64119;52.070;20.804;2023-04-25T06:16:28;6.10;;;4.30;;
75535;SDS011;64119;52.070;20.804;2023-04-25T06:18:56;6.60;;;4.20;;
75535;SDS011;64119;52.070;20.804;2023-04-25T06:21:24;5.80;;;4.20;;
75535;SDS011;64119;52.070;20.804;2023-04-25T06:23:53;4.90;;;3.70;;
75535;SDS011;64119;52.070;20.804;2023-04-25T06:26:23;5.80;;;4.20;;
75535;SDS011;64119;52.070;20.804;2023-04-25T06:28:52;6.00;;;3.70;;
75535;SDS011;64119;52.070;20.804;2023-04-25T06:31:20;6.30;;;3.80;;
75535;SDS011;64119;52.070;20.804;2023-04-25T06:33:49;6.70;;;4.00;;
75535;SDS011;64119;52.070;20.804;2023-04-25T06:36:17;8.70;;;4.40;;
75535;SDS011;64119;52.070;20.804;2023-04-25T06:46:43;5.00;;;3.80;;
75535;SDS011;64119;52.070;20.804;2023-04-25T06:49:13;5.60;;;4.10;;
75535;SDS011;64119;52.070;20.804;2023-04-25T06:51:41;4.20;;;2.90;;
75535;SDS011;64119;52.070;20.804;2023-04-25T06:54:09;4.50;;;3.10;;
75535;SDS011;64119;52.070;20.804;2023-04-25T06:56:45;4.40;;;3.30;;
75535;SDS011;64119;52.070;20.804;2023-04-25T06:59:14;5.00;;;2.90;;
75535;SDS011;64119;52.070;20.804;2023-04-25T07:01:44;4.60;;;3.50;;
75535;SDS011;64119;52.070;20.804;2023-04-25T07:04:18;3.60;;;3.20;;
75535;SDS011;64119;52.070;20.804;2023-04-25T07:06:53;5.30;;;3.80;;
75535;SDS011;64119;52.070;20.804;2023-04-25T07:09:24;5.40;;;3.80;;
75535;SDS011;64119;52.070;20.804;2023-04-25T07:11:52;4.50;;;3.60;;
75535;SDS011;64119;52.070;20.804;2023-04-25T07:14:20;4.60;;;3.40;;
75535;SDS011;64119;52.070;20.804;2023-04-25T07:16:48;5.90;;;3.50;;
75535;SDS011;64119;52.070;20.804;2023-04-25T07:19:17;4.50;;;3.40;;
75535;SDS011;64119;52.070;20.804;2023-04-25T07:21:45;5.30;;;3.60;;
75535;SDS011;64119;52.070;20.804;2023-04-25T07:24:13;4.50;;;3.40;;
75535;SDS011;64119;52.070;20.804;2023-04-25T07:26:43;4.70;;;3.30;;
75535;SDS011;64119;52.070;20.804;2023-04-25T07:29:24;4.00;;;2.40;;
75535;SDS011;64119;52.070;20.804;2023-04-25T07:31:52;4.00;;;3.10;;
75535;SDS011;64119;52.070;20.804;2023-04-25T07:34:21;4.90;;;3.40;;
75535;SDS011;64119;52.070;20.804;2023-04-25T07:36:49;3.70;;;3.10;;
75535;SDS011;64119;52.070;20.804;2023-04-25T07:39:17;5.50;;;3.70;;
75535;SDS011;64119;52.070;20.804;2023-04-25T07:41:44;3.90;;;3.10;;
75535;SDS011;64119;52.070;20.804;2023-04-25T07:44:17;3.80;;;3.00;;
75535;SDS011;64119;52.070;20.804;2023-04-25T07:46:45;5.70;;;2.90;;
75535;SDS011;64119;52.070;20.804;2023-04-25T07:49:13;4.70;;;3.00;;
75535;SDS011;64119;52.070;20.804;2023-04-25T07:51:41;2.90;;;2.10;;
75535;SDS011;64119;52.070;20.804;2023-04-25T07:54:13;4.00;;;2.50;;
75535;SDS011;64119;52.070;20.804;2023-04-25T07:56:46;3.50;;;2.50;;
75535;SDS011;64119;52.070;20.804;2023-04-25T07:59:20;3.30;;;2.50;;
75535;SDS011;64119;52.070;20.804;2023-04-25T08:01:49;2.90;;;2.00;;
75535;SDS011;64119;52.070;20.804;2023-04-25T08:04:18;3.20;;;2.20;;
75535;SDS011;64119;52.070;20.804;2023-04-25T08:06:55;3.40;;;2.30;;
75535;SDS011;64119;52.070;20.804;2023-04-25T08:09:26;3.60;;;2.20;;
75535;SDS011;64119;52.070;20.804;2023-04-25T08:11:55;3.50;;;2.60;;
75535;SDS011;64119;52.070;20.804;2023-04-25T08:14:27;3.60;;;2.60;;
75535;SDS011;64119;52.070;20.804;2023-04-25T08:16:56;2.50;;;1.90;;
75535;SDS011;64119;52.070;20.804;2023-04-25T08:19:24;4.60;;;2.30;;
75535;SDS011;64119;52.070;20.804;2023-04-25T08:21:52;4.10;;;2.50;;
75535;SDS011;64119;52.070;20.804;2023-04-25T08:24:25;3.70;;;2.10;;
75535;SDS011;64119;52.070;20.804;2023-04-25T08:26:53;3.20;;;2.50;;
75535;SDS011;64119;52.070;20.804;2023-04-25T08:29:22;3.50;;;2.50;;
75535;SDS011;64119;52.070;20.804;2023-04-25T08:31:52;3.50;;;2.30;;
75535;SDS011;64119;52.070;20.804;2023-04-25T08:34:21;3.30;;;2.10;;
75535;SDS011;64119;52.070;20.804;2023-04-25T08:36:50;3.20;;;1.90;;
75535;SDS011;64119;52.070;20.804;2023-04-25T08:39:22;3.70;;;2.40;;
75535;SDS011;64119;52.070;20.804;2023-04-25T08:42:08;4.70;;;2.80;;
75535;SDS011;64119;52.070;20.804;2023-04-25T08:44:39;3.50;;;1.80;;
75535;SDS011;64119;52.070;20.804;2023-04-25T08:47:07;2.50;;;1.80;;
75535;SDS011;64119;52.070;20.804;2023-04-25T08:49:49;3.70;;;2.70;;
75535;SDS011;64119;52.070;20.804;2023-04-25T08:52:20;3.30;;;2.30;;
75535;SDS011;64119;52.070;20.804;2023-04-25T08:54:50;4.40;;;3.10;;
75535;SDS011;64119;52.070;20.804;2023-04-25T08:57:20;4.40;;;2.50;;
75535;SDS011;64119;52.070;20.804;2023-04-25T08:59:49;3.70;;;2.70;;
75535;SDS011;64119;52.070;20.804;2023-04-25T09:02:17;3.50;;;2.20;;
75535;SDS011;64119;52.070;20.804;2023-04-25T09:04:49;3.10;;;2.30;;
75535;SDS011;64119;52.070;20.804;2023-04-25T09:07:17;3.30;;;2.40;;
75535;SDS011;64119;52.070;20.804;2023-04-25T09:09:46;3.70;;;2.40;;
75535;SDS011;64119;52.070;20.804;2023-04-25T09:12:19;4.50;;;3.40;;
75535;SDS011;64119;52.070;20.804;2023-04-25T09:15:07;3.90;;;3.00;;
75535;SDS011;64119;52.070;20.804;2023-04-25T09:17:56;3.00;;;2.30;;
75535;SDS011;64119;52.070;20.804;2023-04-25T09:20:28;3.80;;;3.20;;
75535;SDS011;64119;52.070;20.804;2023-04-25T09:23:04;4.50;;;3.10;;
75535;SDS011;64119;52.070;20.804;2023-04-25T09:25:36;5.30;;;3.60;;
75535;SDS011;64119;52.070;20.804;2023-04-25T09:28:07;4.20;;;3.30;;
75535;SDS011;64119;52.070;20.804;2023-04-25T09:30:36;4.30;;;3.20;;
75535;SDS011;64119;52.070;20.804;2023-04-25T09:33:10;4.40;;;3.50;;
75535;SDS011;64119;52.070;20.804;2023-04-25T09:35:44;5.20;;;3.60;;
75535;SDS011;64119;52.070;20.804;2023-04-25T09:38:40;3.60;;;2.90;;
75535;SDS011;64119;52.070;20.804;2023-04-25T09:41:16;4.30;;;3.10;;
75535;SDS011;64119;52.070;20.804;2023-04-25T09:43:50;4.50;;;3.50;;
75535;SDS011;64119;52.070;20.804;2023-04-25T09:46:19;4.00;;;3.50;;
75535;SDS011;64119;52.070;20.804;2023-04-25T09:48:52;4.30;;;3.60;;
75535;SDS011;64119;52.070;20.804;2023-04-25T09:51:32;5.80;;;3.70;;
75535;SDS011;64119;52.070;20.804;2023-04-25T09:54:01;6.00;;;4.20;;
75535;SDS011;64119;52.070;20.804;2023-04-25T09:56:47;5.60;;;4.30;;
75535;SDS011;64119;52.070;20.804;2023-04-25T09:59:21;5.40;;;4.20;;
75535;SDS011;64119;52.070;20.804;2023-04-25T10:01:50;7.30;;;4.70;;
75535;SDS011;64119;52.070;20.804;2023-04-25T10:04:24;5.50;;;3.50;;
75535;SDS011;64119;52.070;20.804;2023-04-25T10:07:07;4.60;;;3.50;;
75535;SDS011;64119;52.070;20.804;2023-04-25T10:09:37;4.40;;;3.40;;
75535;SDS011;64119;52.070;20.804;2023-04-25T10:12:07;5.60;;;4.20;;
75535;SDS011;64119;52.070;20.804;2023-04-25T10:14:35;5.00;;;3.60;;
75535;SDS011;64119;52.070;20.804;2023-04-25T10:17:03;4.80;;;3.70;;
75535;SDS011;64119;52.070;20.804;2023-04-25T10:19:31;5.60;;;4.30;;
75535;SDS011;64119;52.070;20.804;2023-04-25T10:22:11;5.10;;;4.00;;
75535;SDS011;64119;52.070;20.804;2023-04-25T10:24:44;7.30;;;3.20;;
75535;SDS011;64119;52.070;20.804;2023-04-25T10:27:13;4.70;;;3.40;;
75535;SDS011;64119;52.070;20.804;2023-04-25T10:29:42;5.70;;;3.40;;
75535;SDS011;64119;52.070;20.804;2023-04-25T10:32:12;5.50;;;3.10;;
75535;SDS011;64119;52.070;20.804;2023-04-25T10:34:41;3.70;;;3.20;;
75535;SDS011;64119;52.070;20.804;2023-04-25T10:37:11;4.40;;;3.00;;
75535;SDS011;64119;52.070;20.804;2023-04-25T10:39:40;4.70;;;3.20;;
75535;SDS011;64119;52.070;20.804;2023-04-25T10:44:37;3.20;;;2.20;;
75535;SDS011;64119;52.070;20.804;2023-04-25T10:47:07;3.60;;;2.80;;
75535;SDS011;64119;52.070;20.804;2023-04-25T10:49:37;3.70;;;2.70;;
75535;SDS011;64119;52.070;20.804;2023-04-25T10:52:25;3.20;;;2.20;;
75535;SDS011;64119;52.070;20.804;2023-04-25T10:54:56;3.20;;;2.20;;
75535;SDS011;64119;52.070;20.804;2023-04-25T10:57:41;4.20;;;2.90;;
75535;SDS011;64119;52.070;20.804;2023-04-25T11:00:18;5.20;;;2.80;;
75535;SDS011;64119;52.070;20.804;2023-04-25T11:02:58;4.70;;;3.30;;
75535;SDS011;64119;52.070;20.804;2023-04-25T11:08:17;3.30;;;2.70;;
75535;SDS011;64119;52.070;20.804;2023-04-25T11:11:01;3.20;;;2.50;;
75535;SDS011;64119;52.070;20.804;2023-04-25T11:13:29;4.90;;;3.30;;
75535;SDS011;64119;52.070;20.804;2023-04-25T11:15:58;3.20;;;2.50;;
75535;SDS011;64119;52.070;20.804;2023-04-25T11:18:43;3.80;;;3.00;;
75535;SDS011;64119;52.070;20.804;2023-04-25T11:21:11;3.10;;;2.40;;
75535;SDS011;64119;52.070;20.804;2023-04-25T11:23:40;1.80;;;1.40;;
75535;SDS011;64119;52.070;20.804;2023-04-25T11:26:12;4.30;;;2.80;;
75535;SDS011;64119;52.070;20.804;2023-04-25T11:28:44;3.70;;;2.60;;
75535;SDS011;64119;52.070;20.804;2023-04-25T11:31:13;3.70;;;2.50;;
75535;SDS011;64119;52.070;20.804;2023-04-25T11:33:40;3.60;;;2.70;;
75535;SDS011;64119;52.070;20.804;2023-04-25T11:36:10;3.20;;;2.30;;
75535;SDS011;64119;52.070;20.804;2023-04-25T11:38:38;4.00;;;2.50;;
75535;SDS011;64119;52.070;20.804;2023-04-25T11:41:05;2.60;;;1.90;;
75535;SDS011;64119;52.070;20.804;2023-04-25T11:43:33;3.20;;;1.90;;
75535;SDS011;64119;52.070;20.804;2023-04-25T11:46:06;2.60;;;2.10;;
75535;SDS011;64119;52.070;20.804;2023-04-25T11:48:38;3.00;;;2.00;;
75535;SDS011;64119;52.070;20.804;2023-04-25T11:51:09;4.00;;;2.60;;
75535;SDS011;64119;52.070;20.804;2023-04-25T11:53:40;3.00;;;2.00;;
75535;SDS011;64119;52.070;20.804;2023-04-25T11:56:09;5.60;;;2.50;;
75535;SDS011;64119;52.070;20.804;2023-04-25T11:58:57;2.40;;;1.70;;
75535;SDS011;64119;52.070;20.804;2023-04-25T12:01:33;4.00;;;2.60;;
75535;SDS011;64119;52.070;20.804;2023-04-25T12:06:45;2.50;;;1.70;;
75535;SDS011;64119;52.070;20.804;2023-04-25T12:09:33;2.90;;;2.50;;
75535;SDS011;64119;52.070;20.804;2023-04-25T12:12:01;4.70;;;2.70;;
75535;SDS011;64119;52.070;20.804;2023-04-25T12:14:34;3.10;;;2.40;;
75535;SDS011;64119;52.070;20.804;2023-04-25T12:17:04;4.10;;;2.70;;
75535;SDS011;64119;52.070;20.804;2023-04-25T12:19:35;3.30;;;2.50;;
75535;SDS011;64119;52.070;20.804;2023-04-25T12:22:20;6.20;;;5.60;;
75535;SDS011;64119;52.070;20.804;2023-04-25T12:24:53;4.30;;;2.90;;
75535;SDS011;64119;52.070;20.804;2023-04-25T12:27:21;2.40;;;1.80;;
75535;SDS011;64119;52.070;20.804;2023-04-25T12:29:53;3.00;;;2.20;;
75535;SDS011;64119;52.070;20.804;2023-04-25T12:32:22;4.30;;;3.40;;
75535;SDS011;64119;52.070;20.804;2023-04-25T12:37:55;5.10;;;2.40;;
75535;SDS011;64119;52.070;20.804;2023-04-25T12:40:23;3.80;;;2.70;;
75535;SDS011;64119;52.070;20.804;2023-04-25T12:42:51;4.10;;;3.10;;
75535;SDS011;64119;52.070;20.804;2023-04-25T12:45:18;3.40;;;2.60;;
75535;SDS011;64119;52.070;20.804;2023-04-25T12:47:46;4.30;;;2.70;;
75535;SDS011;64119;52.070;20.804;2023-04-25T12:50:14;3.80;;;2.20;;
75535;SDS011;64119;52.070;20.804;2023-04-25T12:52:42;3.30;;;2.10;;
75535;SDS011;64119;52.070;20.804;2023-04-25T12:55:09;3.50;;;2.20;;
75535;SDS011;64119;52.070;20.804;2023-04-25T12:57:37;3.10;;;2.40;;
75535;SDS011;64119;52.070;20.804;2023-04-25T13:00:05;5.80;;;3.10;;
75535;SDS011;64119;52.070;20.804;2023-04-25T13:02:36;3.80;;;2.80;;
75535;SDS011;64119;52.070;20.804;2023-04-25T13:05:04;5.10;;;2.40;;
75535;SDS011;64119;52.070;20.804;2023-04-25T13:07:33;5.10;;;2.90;;
75535;SDS011;64119;52.070;20.804;2023-04-25T13:12:30;5.10;;;2.70;;
75535;SDS011;64119;52.070;20.804;2023-04-25T13:14:58;2.50;;;2.10;;
75535;SDS011;64119;52.070;20.804;2023-04-25T13:17:26;3.80;;;2.40;;
75535;SDS011;64119;52.070;20.804;2023-04-25T13:19:55;2.70;;;1.90;;
75535;SDS011;64119;52.070;20.804;2023-04-25T13:22:23;3.00;;;2.30;;
75535;SDS011;64119;52.070;20.804;2023-04-25T13:24:51;2.40;;;2.00;;
75535;SDS011;64119;52.070;20.804;2023-04-25T13:27:18;2.50;;;1.90;;
75535;SDS011;64119;52.070;20.804;2023-04-25T13:29:46;2.60;;;2.10;;
75535;SDS011;64119;52.070;20.804;2023-04-25T13:32:20;2.90;;;2.10;;
75535;SDS011;64119;52.070;20.804;2023-04-25T13:34:48;4.40;;;2.30;;
75535;SDS011;64119;52.070;20.804;2023-04-25T13:37:16;4.00;;;2.50;;
75535;SDS011;64119;52.070;20.804;2023-04-25T13:39:44;3.30;;;2.50;;
75535;SDS011;64119;52.070;20.804;2023-04-25T13:42:12;3.50;;;2.90;;
75535;SDS011;64119;52.070;20.804;2023-04-25T13:44:40;5.30;;;3.70;;
75535;SDS011;64119;52.070;20.804;2023-04-25T13:47:08;4.40;;;3.10;;
75535;SDS011;64119;52.070;20.804;2023-04-25T13:49:36;2.90;;;2.20;;
75535;SDS011;64119;52.070;20.804;2023-04-25T13:52:03;3.90;;;3.20;;
75535;SDS011;64119;52.070;20.804;2023-04-25T13:54:31;4.60;;;2.60;;
75535;SDS011;64119;52.070;20.804;2023-04-25T13:56:59;4.20;;;2.80;;
75535;SDS011;64119;52.070;20.804;2023-04-25T13:59:29;3.70;;;2.90;;
75535;SDS011;64119;52.070;20.804;2023-04-25T14:01:57;4.90;;;3.40;;
75535;SDS011;64119;52.070;20.804;2023-04-25T14:04:25;4.00;;;3.00;;
75535;SDS011;64119;52.070;20.804;2023-04-25T14:06:53;4.20;;;3.80;;
75535;SDS011;64119;52.070;20.804;2023-04-25T14:09:22;4.40;;;3.20;;
75535;SDS011;64119;52.070;20.804;2023-04-25T14:11:53;4.20;;;3.20;;
75535;SDS011;64119;52.070;20.804;2023-04-25T14:14:21;4.00;;;3.00;;
75535;SDS011;64119;52.070;20.804;2023-04-25T14:16:50;6.50;;;4.00;;
75535;SDS011;64119;52.070;20.804;2023-04-25T14:19:21;5.20;;;2.70;;
75535;SDS011;64119;52.070;20.804;2023-04-25T14:21:49;4.40;;;3.60;;
75535;SDS011;64119;52.070;20.804;2023-04-25T14:24:17;4.50;;;3.60;;
75535;SDS011;64119;52.070;20.804;2023-04-25T14:26:45;4.60;;;3.10;;
75535;SDS011;64119;52.070;20.804;2023-04-25T14:29:12;4.00;;;3.50;;
75535;SDS011;64119;52.070;20.804;2023-04-25T14:31:40;3.50;;;3.10;;
75535;SDS011;64119;52.070;20.804;2023-04-25T14:34:08;5.90;;;4.10;;
75535;SDS011;64119;52.070;20.804;2023-04-25T14:36:36;5.60;;;3.70;;
75535;SDS011;64119;52.070;20.804;2023-04-25T14:39:04;5.30;;;3.70;;
75535;SDS011;64119;52.070;20.804;2023-04-25T14:41:32;5.10;;;4.20;;
75535;SDS011;64119;52.070;20.804;2023-04-25T14:44:00;5.10;;;3.90;;
75535;SDS011;64119;52.070;20.804;2023-04-25T14:46:28;5.20;;;3.70;;
75535;SDS011;64119;52.070;20.804;2023-04-25T14:48:56;5.50;;;3.50;;
75535;SDS011;64119;52.070;20.804;2023-04-25T14:51:24;4.90;;;3.20;;
75535;SDS011;64119;52.070;20.804;2023-04-25T14:53:53;3.90;;;2.90;;
75535;SDS011;64119;52.070;20.804;2023-04-25T14:56:21;4.60;;;3.30;;
75535;SDS011;64119;52.070;20.804;2023-04-25T14:58:49;5.30;;;2.80;;
75535;SDS011;64119;52.070;20.804;2023-04-25T15:01:17;4.50;;;2.70;;
75535;SDS011;64119;52.070;20.804;2023-04-25T15:03:48;4.50;;;3.20;;
75535;SDS011;64119;52.070;20.804;2023-04-25T15:06:16;4.20;;;2.80;;
75535;SDS011;64119;52.070;20.804;2023-04-25T15:08:45;5.30;;;3.10;;
75535;SDS011;64119;52.070;20.804;2023-04-25T15:11:13;3.80;;;2.80;;
75535;SDS011;64119;52.070;20.804;2023-04-25T15:13:41;4.40;;;3.20;;
75535;SDS011;64119;52.070;20.804;2023-04-25T15:16:09;5.00;;;3.10;;
75535;SDS011;64119;52.070;20.804;2023-04-25T15:18:37;6.20;;;3.30;;
75535;SDS011;64119;52.070;20.804;2023-04-25T15:21:05;4.60;;;2.90;;
75535;SDS011;64119;52.070;20.804;2023-04-25T15:23:33;4.80;;;3.50;;
75535;SDS011;64119;52.070;20.804;2023-04-25T15:26:01;5.70;;;3.30;;
75535;SDS011;64119;52.070;20.804;2023-04-25T15:28:29;4.70;;;3.60;;